sensor_id;sensor_type;location;lat;lon;timestamp;P1;durP1;ratioP1;P2;durP2;ratioP2
7162;SDS011;3623;47.098;15.446;2023-07-20T00:00:21;5.47;;;5.03;;
7162;SDS011;3623;47.098;15.446;2023-07-20T00:05:58;6.27;;;4.93;;
7162;SDS011;3623;47.098;15.446;2023-07-20T00:08:25;5.27;;;4.77;;
7162;SDS011;3623;47.098;15.446;2023-07-20T00:10:54;5.63;;;5.13;;
7162;SDS011;3623;47.098;15.446;2023-07-20T00:13:21;8.13;;;4.97;;
7162;SDS011;3623;47.098;15.446;2023-07-20T00:15:48;5.97;;;5.47;;
7162;SDS011;3623;47.098;15.446;2023-07-20T00:18:21;6.00;;;5.50;;
7162;SDS011;3623;47.098;15.446;2023-07-20T00:20:48;6.80;;;6.07;;
7162;SDS011;3623;47.098;15.446;2023-07-20T00:23:16;7.20;;;5.90;;
7162;SDS011;3623;47.098;15.446;2023-07-20T00:25:47;5.90;;;4.73;;
7162;SDS011;3623;47.098;15.446;2023-07-20T00:28:42;7.33;;;6.00;;
7162;SDS011;3623;47.098;15.446;2023-07-20T00:31:09;5.33;;;4.83;;
7162;SDS011;3623;47.098;15.446;2023-07-20T00:33:40;5.10;;;4.63;;
7162;SDS011;3623;47.098;15.446;2023-07-20T00:36:07;9.23;;;5.37;;
7162;SDS011;3623;47.098;15.446;2023-07-20T00:38:34;5.80;;;5.23;;
7162;SDS011;3623;47.098;15.446;2023-07-20T00:41:01;5.60;;;5.17;;
7162;SDS011;3623;47.098;15.446;2023-07-20T00:43:40;6.13;;;5.13;;
7162;SDS011;3623;47.098;15.446;2023-07-20T00:48:57;7.27;;;6.27;;
7162;SDS011;3623;47.098;15.446;2023-07-20T00:51:46;6.30;;;5.70;;
7162;SDS011;3623;47.098;15.446;2023-07-20T00:54:14;5.60;;;5.10;;
7162;SDS011;3623;47.098;15.446;2023-07-20T00:56:42;5.63;;;4.57;;
7162;SDS011;3623;47.098;15.446;2023-07-20T00:59:11;7.53;;;4.93;;
7162;SDS011;3623;47.098;15.446;2023-07-20T01:01:40;5.33;;;4.83;;
7162;SDS011;3623;47.098;15.446;2023-07-20T01:04:07;5.40;;;4.90;;
7162;SDS011;3623;47.098;15.446;2023-07-20T01:06:36;8.30;;;5.93;;
7162;SDS011;3623;47.098;15.446;2023-07-20T01:09:12;6.93;;;5.67;;
7162;SDS011;3623;47.098;15.446;2023-07-20T01:11:48;7.50;;;5.47;;
7162;SDS011;3623;47.098;15.446;2023-07-20T01:14:20;5.50;;;5.10;;
7162;SDS011;3623;47.098;15.446;2023-07-20T01:16:51;4.50;;;4.20;;
7162;SDS011;3623;47.098;15.446;2023-07-20T01:19:19;8.13;;;4.97;;
7162;SDS011;3623;47.098;15.446;2023-07-20T01:21:48;5.57;;;5.07;;
7162;SDS011;3623;47.098;15.446;2023-07-20T01:30:48;5.57;;;4.90;;
7162;SDS011;3623;47.098;15.446;2023-07-20T01:33:23;5.00;;;4.50;;
7162;SDS011;3623;47.098;15.446;2023-07-20T01:36:00;5.53;;;5.03;;
7162;SDS011;3623;47.098;15.446;2023-07-20T01:38:36;7.20;;;4.40;;
7162;SDS011;3623;47.098;15.446;2023-07-20T01:41:03;6.00;;;4.97;;
7162;SDS011;3623;47.098;15.446;2023-07-20T01:43:31;5.00;;;4.60;;
7162;SDS011;3623;47.098;15.446;2023-07-20T01:46:06;4.97;;;4.43;;
7162;SDS011;3623;47.098;15.446;2023-07-20T01:48:34;5.97;;;5.00;;
7162;SDS011;3623;47.098;15.446;2023-07-20T01:51:03;5.90;;;4.50;;
7162;SDS011;3623;47.098;15.446;2023-07-20T01:53:37;6.20;;;4.50;;
7162;SDS011;3623;47.098;15.446;2023-07-20T01:56:04;7.77;;;5.80;;
7162;SDS011;3623;47.098;15.446;2023-07-20T01:58:31;4.47;;;4.07;;
7162;SDS011;3623;47.098;15.446;2023-07-20T02:01:01;4.80;;;4.50;;
7162;SDS011;3623;47.098;15.446;2023-07-20T02:03:28;3.80;;;3.57;;
7162;SDS011;3623;47.098;15.446;2023-07-20T02:05:56;5.53;;;5.13;;
7162;SDS011;3623;47.098;15.446;2023-07-20T02:08:24;5.67;;;4.87;;
7162;SDS011;3623;47.098;15.446;2023-07-20T02:10:52;5.80;;;5.30;;
7162;SDS011;3623;47.098;15.446;2023-07-20T02:13:19;5.20;;;4.80;;
7162;SDS011;3623;47.098;15.446;2023-07-20T02:15:47;5.97;;;4.73;;
7162;SDS011;3623;47.098;15.446;2023-07-20T02:18:35;5.97;;;4.70;;
7162;SDS011;3623;47.098;15.446;2023-07-20T02:21:08;4.63;;;4.10;;
7162;SDS011;3623;47.098;15.446;2023-07-20T02:23:38;6.07;;;4.67;;
7162;SDS011;3623;47.098;15.446;2023-07-20T02:26:05;4.40;;;4.00;;
7162;SDS011;3623;47.098;15.446;2023-07-20T02:28:32;4.60;;;4.20;;
7162;SDS011;3623;47.098;15.446;2023-07-20T02:30:59;3.93;;;3.63;;
7162;SDS011;3623;47.098;15.446;2023-07-20T02:33:26;4.77;;;4.30;;
7162;SDS011;3623;47.098;15.446;2023-07-20T02:35:53;4.77;;;4.43;;
7162;SDS011;3623;47.098;15.446;2023-07-20T02:38:22;7.07;;;4.00;;
7162;SDS011;3623;47.098;15.446;2023-07-20T02:40:49;5.70;;;4.37;;
7162;SDS011;3623;47.098;15.446;2023-07-20T02:43:16;5.10;;;4.07;;
7162;SDS011;3623;47.098;15.446;2023-07-20T02:45:44;4.77;;;4.37;;
7162;SDS011;3623;47.098;15.446;2023-07-20T02:48:11;5.17;;;4.67;;
7162;SDS011;3623;47.098;15.446;2023-07-20T02:50:39;4.40;;;4.00;;
7162;SDS011;3623;47.098;15.446;2023-07-20T02:53:24;4.17;;;3.77;;
7162;SDS011;3623;47.098;15.446;2023-07-20T02:55:51;4.03;;;3.70;;
7162;SDS011;3623;47.098;15.446;2023-07-20T02:58:18;3.97;;;3.67;;
7162;SDS011;3623;47.098;15.446;2023-07-20T03:00:46;4.73;;;4.33;;
7162;SDS011;3623;47.098;15.446;2023-07-20T03:03:13;6.37;;;3.80;;
7162;SDS011;3623;47.098;15.446;2023-07-20T03:05:50;6.20;;;4.17;;
7162;SDS011;3623;47.098;15.446;2023-07-20T03:08:36;5.17;;;4.50;;
7162;SDS011;3623;47.098;15.446;2023-07-20T03:11:03;4.27;;;3.83;;
7162;SDS011;3623;47.098;15.446;2023-07-20T03:13:30;5.33;;;4.33;;
7162;SDS011;3623;47.098;15.446;2023-07-20T03:15:58;3.53;;;3.33;;
7162;SDS011;3623;47.098;15.446;2023-07-20T03:18:25;4.67;;;4.27;;
7162;SDS011;3623;47.098;15.446;2023-07-20T03:20:52;3.90;;;3.60;;
7162;SDS011;3623;47.098;15.446;2023-07-20T03:23:19;3.83;;;3.43;;
7162;SDS011;3623;47.098;15.446;2023-07-20T03:25:50;4.33;;;3.30;;
7162;SDS011;3623;47.098;15.446;2023-07-20T03:28:20;2.90;;;2.70;;
7162;SDS011;3623;47.098;15.446;2023-07-20T03:30:53;3.20;;;3.00;;
7162;SDS011;3623;47.098;15.446;2023-07-20T03:33:22;3.40;;;3.20;;
7162;SDS011;3623;47.098;15.446;2023-07-20T03:35:51;3.77;;;3.47;;
7162;SDS011;3623;47.098;15.446;2023-07-20T03:38:19;3.50;;;3.30;;
7162;SDS011;3623;47.098;15.446;2023-07-20T03:40:51;4.10;;;3.30;;
7162;SDS011;3623;47.098;15.446;2023-07-20T03:43:18;3.10;;;2.80;;
7162;SDS011;3623;47.098;15.446;2023-07-20T03:45:46;4.20;;;3.90;;
7162;SDS011;3623;47.098;15.446;2023-07-20T03:48:13;4.03;;;3.63;;
7162;SDS011;3623;47.098;15.446;2023-07-20T03:50:40;4.20;;;3.80;;
7162;SDS011;3623;47.098;15.446;2023-07-20T03:53:07;4.17;;;3.77;;
7162;SDS011;3623;47.098;15.446;2023-07-20T03:55:35;3.70;;;3.40;;
7162;SDS011;3623;47.098;15.446;2023-07-20T03:58:03;3.47;;;3.20;;
7162;SDS011;3623;47.098;15.446;2023-07-20T04:00:30;4.17;;;3.70;;
7162;SDS011;3623;47.098;15.446;2023-07-20T04:02:57;4.17;;;3.77;;
7162;SDS011;3623;47.098;15.446;2023-07-20T04:05:25;3.30;;;3.10;;
7162;SDS011;3623;47.098;15.446;2023-07-20T04:07:52;4.27;;;3.93;;
7162;SDS011;3623;47.098;15.446;2023-07-20T04:10:21;4.03;;;3.63;;
7162;SDS011;3623;47.098;15.446;2023-07-20T04:13:01;3.67;;;3.43;;
7162;SDS011;3623;47.098;15.446;2023-07-20T04:15:35;4.20;;;3.70;;
7162;SDS011;3623;47.098;15.446;2023-07-20T04:18:02;4.10;;;3.70;;
7162;SDS011;3623;47.098;15.446;2023-07-20T04:20:29;4.03;;;3.63;;
7162;SDS011;3623;47.098;15.446;2023-07-20T04:22:56;3.93;;;3.63;;
7162;SDS011;3623;47.098;15.446;2023-07-20T04:25:24;3.73;;;3.40;;
7162;SDS011;3623;47.098;15.446;2023-07-20T04:27:51;3.67;;;3.37;;
7162;SDS011;3623;47.098;15.446;2023-07-20T04:30:21;3.40;;;3.20;;
7162;SDS011;3623;47.098;15.446;2023-07-20T04:33:03;4.10;;;3.80;;
7162;SDS011;3623;47.098;15.446;2023-07-20T04:38:19;3.80;;;3.40;;
7162;SDS011;3623;47.098;15.446;2023-07-20T04:40:47;3.43;;;3.10;;
7162;SDS011;3623;47.098;15.446;2023-07-20T04:43:28;3.70;;;3.40;;
7162;SDS011;3623;47.098;15.446;2023-07-20T04:45:57;6.40;;;4.27;;
7162;SDS011;3623;47.098;15.446;2023-07-20T04:48:24;4.10;;;3.80;;
7162;SDS011;3623;47.098;15.446;2023-07-20T04:50:51;4.00;;;3.70;;
7162;SDS011;3623;47.098;15.446;2023-07-20T04:53:18;3.43;;;3.17;;
7162;SDS011;3623;47.098;15.446;2023-07-20T04:55:49;8.13;;;4.13;;
7162;SDS011;3623;47.098;15.446;2023-07-20T04:58:19;4.43;;;3.87;;
7162;SDS011;3623;47.098;15.446;2023-07-20T05:00:48;4.83;;;4.07;;
7162;SDS011;3623;47.098;15.446;2023-07-20T05:03:17;4.00;;;3.60;;
7162;SDS011;3623;47.098;15.446;2023-07-20T05:05:47;4.60;;;4.23;;
7162;SDS011;3623;47.098;15.446;2023-07-20T05:08:37;3.63;;;3.33;;
7162;SDS011;3623;47.098;15.446;2023-07-20T05:11:04;3.70;;;3.40;;
7162;SDS011;3623;47.098;15.446;2023-07-20T05:13:32;4.07;;;3.77;;
7162;SDS011;3623;47.098;15.446;2023-07-20T05:15:59;3.47;;;3.20;;
7162;SDS011;3623;47.098;15.446;2023-07-20T05:18:28;4.47;;;4.17;;
7162;SDS011;3623;47.098;15.446;2023-07-20T05:20:56;3.63;;;3.33;;
7162;SDS011;3623;47.098;15.446;2023-07-20T05:23:23;6.40;;;3.20;;
7162;SDS011;3623;47.098;15.446;2023-07-20T05:25:53;3.77;;;3.47;;
7162;SDS011;3623;47.098;15.446;2023-07-20T05:28:21;4.13;;;3.77;;
7162;SDS011;3623;47.098;15.446;2023-07-20T05:30:51;3.87;;;3.57;;
7162;SDS011;3623;47.098;15.446;2023-07-20T05:33:18;3.40;;;3.10;;
7162;SDS011;3623;47.098;15.446;2023-07-20T05:35:48;4.53;;;4.00;;
7162;SDS011;3623;47.098;15.446;2023-07-20T05:38:15;5.83;;;4.37;;
7162;SDS011;3623;47.098;15.446;2023-07-20T05:40:44;3.90;;;3.20;;
7162;SDS011;3623;47.098;15.446;2023-07-20T05:43:12;5.90;;;4.50;;
7162;SDS011;3623;47.098;15.446;2023-07-20T05:45:41;4.30;;;3.90;;
7162;SDS011;3623;47.098;15.446;2023-07-20T05:48:08;4.10;;;3.70;;
7162;SDS011;3623;47.098;15.446;2023-07-20T05:50:36;8.90;;;4.60;;
7162;SDS011;3623;47.098;15.446;2023-07-20T05:53:04;3.93;;;3.53;;
7162;SDS011;3623;47.098;15.446;2023-07-20T05:55:31;4.63;;;3.90;;
7162;SDS011;3623;47.098;15.446;2023-07-20T05:57:58;4.00;;;3.53;;
7162;SDS011;3623;47.098;15.446;2023-07-20T06:00:26;4.80;;;3.73;;
7162;SDS011;3623;47.098;15.446;2023-07-20T06:02:53;4.03;;;3.73;;
7162;SDS011;3623;47.098;15.446;2023-07-20T06:05:21;3.43;;;2.97;;
7162;SDS011;3623;47.098;15.446;2023-07-20T06:07:48;3.33;;;3.13;;
7162;SDS011;3623;47.098;15.446;2023-07-20T06:10:31;3.57;;;3.27;;
7162;SDS011;3623;47.098;15.446;2023-07-20T06:12:58;3.80;;;3.50;;
7162;SDS011;3623;47.098;15.446;2023-07-20T06:15:25;4.73;;;4.10;;
7162;SDS011;3623;47.098;15.446;2023-07-20T06:17:53;4.57;;;4.17;;
7162;SDS011;3623;47.098;15.446;2023-07-20T06:20:23;3.60;;;3.30;;
7162;SDS011;3623;47.098;15.446;2023-07-20T06:22:50;4.10;;;3.80;;
7162;SDS011;3623;47.098;15.446;2023-07-20T06:25:19;5.30;;;4.00;;
7162;SDS011;3623;47.098;15.446;2023-07-20T06:27:48;10.10;;;3.80;;
7162;SDS011;3623;47.098;15.446;2023-07-20T06:30:16;5.87;;;3.60;;
7162;SDS011;3623;47.098;15.446;2023-07-20T06:32:44;3.70;;;3.40;;
7162;SDS011;3623;47.098;15.446;2023-07-20T06:35:11;4.23;;;3.90;;
7162;SDS011;3623;47.098;15.446;2023-07-20T06:37:41;4.00;;;3.80;;
7162;SDS011;3623;47.098;15.446;2023-07-20T06:40:13;7.13;;;4.10;;
7162;SDS011;3623;47.098;15.446;2023-07-20T06:42:40;3.73;;;3.50;;
7162;SDS011;3623;47.098;15.446;2023-07-20T06:45:09;5.50;;;5.00;;
7162;SDS011;3623;47.098;15.446;2023-07-20T06:47:37;5.80;;;3.80;;
7162;SDS011;3623;47.098;15.446;2023-07-20T06:50:06;3.67;;;3.37;;
7162;SDS011;3623;47.098;15.446;2023-07-20T06:52:34;4.30;;;4.00;;
7162;SDS011;3623;47.098;15.446;2023-07-20T06:55:02;4.13;;;3.83;;
7162;SDS011;3623;47.098;15.446;2023-07-20T06:57:30;3.90;;;3.60;;
7162;SDS011;3623;47.098;15.446;2023-07-20T06:59:57;5.43;;;3.47;;
7162;SDS011;3623;47.098;15.446;2023-07-20T07:02:25;7.50;;;3.60;;
7162;SDS011;3623;47.098;15.446;2023-07-20T07:05:21;4.57;;;4.00;;
7162;SDS011;3623;47.098;15.446;2023-07-20T07:07:57;6.13;;;4.03;;
7162;SDS011;3623;47.098;15.446;2023-07-20T07:10:34;4.00;;;3.67;;
7162;SDS011;3623;47.098;15.446;2023-07-20T07:13:02;4.67;;;4.30;;
7162;SDS011;3623;47.098;15.446;2023-07-20T07:15:29;4.23;;;3.90;;
7162;SDS011;3623;47.098;15.446;2023-07-20T07:17:58;5.10;;;4.33;;
7162;SDS011;3623;47.098;15.446;2023-07-20T07:20:26;4.63;;;4.23;;
7162;SDS011;3623;47.098;15.446;2023-07-20T07:22:53;9.53;;;4.53;;
7162;SDS011;3623;47.098;15.446;2023-07-20T07:25:21;39.83;;;6.13;;
7162;SDS011;3623;47.098;15.446;2023-07-20T07:27:49;10.40;;;4.43;;
7162;SDS011;3623;47.098;15.446;2023-07-20T07:30:20;5.67;;;5.10;;
7162;SDS011;3623;47.098;15.446;2023-07-20T07:32:48;9.80;;;4.70;;
7162;SDS011;3623;47.098;15.446;2023-07-20T07:35:17;4.53;;;4.10;;
7162;SDS011;3623;47.098;15.446;2023-07-20T07:37:53;9.70;;;4.57;;
7162;SDS011;3623;47.098;15.446;2023-07-20T07:40:23;4.67;;;4.27;;
7162;SDS011;3623;47.098;15.446;2023-07-20T07:42:50;6.80;;;4.20;;
7162;SDS011;3623;47.098;15.446;2023-07-20T07:45:17;5.33;;;4.80;;
7162;SDS011;3623;47.098;15.446;2023-07-20T07:47:44;5.10;;;4.50;;
7162;SDS011;3623;47.098;15.446;2023-07-20T07:50:11;8.87;;;4.73;;
7162;SDS011;3623;47.098;15.446;2023-07-20T07:52:39;13.30;;;4.80;;
7162;SDS011;3623;47.098;15.446;2023-07-20T07:55:07;6.50;;;5.10;;
7162;SDS011;3623;47.098;15.446;2023-07-20T07:57:34;6.40;;;3.90;;
7162;SDS011;3623;47.098;15.446;2023-07-20T08:00:01;5.07;;;4.67;;
7162;SDS011;3623;47.098;15.446;2023-07-20T08:02:29;5.80;;;3.50;;
7162;SDS011;3623;47.098;15.446;2023-07-20T08:04:57;5.37;;;4.47;;
7162;SDS011;3623;47.098;15.446;2023-07-20T08:07:24;5.43;;;4.30;;
7162;SDS011;3623;47.098;15.446;2023-07-20T08:12:37;7.13;;;4.23;;
7162;SDS011;3623;47.098;15.446;2023-07-20T08:15:10;3.90;;;3.60;;
7162;SDS011;3623;47.098;15.446;2023-07-20T08:17:37;4.50;;;4.07;;
7162;SDS011;3623;47.098;15.446;2023-07-20T08:20:05;6.67;;;4.30;;
7162;SDS011;3623;47.098;15.446;2023-07-20T08:22:35;4.57;;;3.90;;
7162;SDS011;3623;47.098;15.446;2023-07-20T08:25:02;4.87;;;3.70;;
7162;SDS011;3623;47.098;15.446;2023-07-20T08:27:33;4.37;;;4.07;;
7162;SDS011;3623;47.098;15.446;2023-07-20T08:30:00;4.50;;;3.87;;
7162;SDS011;3623;47.098;15.446;2023-07-20T08:32:28;4.17;;;3.70;;
7162;SDS011;3623;47.098;15.446;2023-07-20T08:34:55;5.00;;;4.60;;
7162;SDS011;3623;47.098;15.446;2023-07-20T08:37:22;6.33;;;4.20;;
7162;SDS011;3623;47.098;15.446;2023-07-20T08:39:49;3.93;;;3.53;;
7162;SDS011;3623;47.098;15.446;2023-07-20T08:42:16;5.00;;;4.10;;
7162;SDS011;3623;47.098;15.446;2023-07-20T08:44:46;4.03;;;3.53;;
7162;SDS011;3623;47.098;15.446;2023-07-20T08:47:16;4.07;;;3.53;;
7162;SDS011;3623;47.098;15.446;2023-07-20T08:49:43;3.10;;;2.90;;
7162;SDS011;3623;47.098;15.446;2023-07-20T08:52:15;3.47;;;3.17;;
7162;SDS011;3623;47.098;15.446;2023-07-20T08:54:42;3.70;;;3.40;;
7162;SDS011;3623;47.098;15.446;2023-07-20T08:57:09;4.40;;;4.00;;
7162;SDS011;3623;47.098;15.446;2023-07-20T08:59:41;3.37;;;3.17;;
7162;SDS011;3623;47.098;15.446;2023-07-20T09:02:10;5.00;;;3.37;;
7162;SDS011;3623;47.098;15.446;2023-07-20T09:04:44;3.63;;;3.33;;
7162;SDS011;3623;47.098;15.446;2023-07-20T09:07:27;4.70;;;3.23;;
7162;SDS011;3623;47.098;15.446;2023-07-20T09:09:58;2.97;;;2.77;;
7162;SDS011;3623;47.098;15.446;2023-07-20T09:12:42;3.30;;;3.10;;
7162;SDS011;3623;47.098;15.446;2023-07-20T09:15:10;3.00;;;2.80;;
7162;SDS011;3623;47.098;15.446;2023-07-20T09:21:15;3.33;;;3.10;;
7162;SDS011;3623;47.098;15.446;2023-07-20T09:23:47;3.83;;;3.33;;
7162;SDS011;3623;47.098;15.446;2023-07-20T09:26:18;3.77;;;3.10;;
7162;SDS011;3623;47.098;15.446;2023-07-20T09:28:47;4.13;;;3.80;;
7162;SDS011;3623;47.098;15.446;2023-07-20T09:31:16;4.63;;;3.43;;
7162;SDS011;3623;47.098;15.446;2023-07-20T09:33:46;3.40;;;3.10;;
7162;SDS011;3623;47.098;15.446;2023-07-20T09:36:13;3.70;;;3.30;;
7162;SDS011;3623;47.098;15.446;2023-07-20T09:38:42;3.13;;;2.90;;
7162;SDS011;3623;47.098;15.446;2023-07-20T09:41:12;5.53;;;3.27;;
7162;SDS011;3623;47.098;15.446;2023-07-20T09:43:41;3.90;;;3.50;;
7162;SDS011;3623;47.098;15.446;2023-07-20T09:46:09;3.40;;;3.10;;
7162;SDS011;3623;47.098;15.446;2023-07-20T09:48:37;5.40;;;3.50;;
7162;SDS011;3623;47.098;15.446;2023-07-20T09:51:45;3.80;;;3.40;;
7162;SDS011;3623;47.098;15.446;2023-07-20T09:54:13;4.33;;;3.77;;
7162;SDS011;3623;47.098;15.446;2023-07-20T09:56:41;3.23;;;2.70;;
7162;SDS011;3623;47.098;15.446;2023-07-20T09:59:10;3.63;;;3.43;;
7162;SDS011;3623;47.098;15.446;2023-07-20T10:01:37;5.73;;;3.70;;
7162;SDS011;3623;47.098;15.446;2023-07-20T10:04:09;3.73;;;3.30;;
7162;SDS011;3623;47.098;15.446;2023-07-20T10:09:23;4.33;;;4.03;;
7162;SDS011;3623;47.098;15.446;2023-07-20T10:15:29;4.57;;;3.97;;
7162;SDS011;3623;47.098;15.446;2023-07-20T10:18:07;3.43;;;3.13;;
7162;SDS011;3623;47.098;15.446;2023-07-20T10:20:39;4.63;;;4.23;;
7162;SDS011;3623;47.098;15.446;2023-07-20T10:23:08;4.90;;;4.40;;
7162;SDS011;3623;47.098;15.446;2023-07-20T10:29:44;5.10;;;4.50;;
7162;SDS011;3623;47.098;15.446;2023-07-20T10:36:06;14.00;;;5.93;;
7162;SDS011;3623;47.098;15.446;2023-07-20T10:43:08;4.90;;;4.50;;
7162;SDS011;3623;47.098;15.446;2023-07-20T10:46:16;6.70;;;4.70;;
7162;SDS011;3623;47.098;15.446;2023-07-20T10:49:57;4.30;;;4.00;;
7162;SDS011;3623;47.098;15.446;2023-07-20T10:53:05;5.07;;;4.20;;
7162;SDS011;3623;47.098;15.446;2023-07-20T10:59:19;5.73;;;4.60;;
7162;SDS011;3623;47.098;15.446;2023-07-20T11:05:37;5.80;;;3.80;;
7162;SDS011;3623;47.098;15.446;2023-07-20T11:11:39;4.50;;;4.10;;
7162;SDS011;3623;47.098;15.446;2023-07-20T11:14:20;3.90;;;3.60;;
7162;SDS011;3623;47.098;15.446;2023-07-20T11:16:50;4.83;;;4.43;;
7162;SDS011;3623;47.098;15.446;2023-07-20T11:19:40;4.50;;;4.00;;
7162;SDS011;3623;47.098;15.446;2023-07-20T11:22:39;4.20;;;3.60;;
7162;SDS011;3623;47.098;15.446;2023-07-20T11:25:10;3.80;;;3.40;;
7162;SDS011;3623;47.098;15.446;2023-07-20T11:28:01;7.00;;;4.30;;
7162;SDS011;3623;47.098;15.446;2023-07-20T11:31:16;4.50;;;4.10;;
7162;SDS011;3623;47.098;15.446;2023-07-20T11:33:47;3.50;;;3.20;;
7162;SDS011;3623;47.098;15.446;2023-07-20T11:36:42;3.77;;;3.47;;
7162;SDS011;3623;47.098;15.446;2023-07-20T11:39:12;4.73;;;3.70;;
7162;SDS011;3623;47.098;15.446;2023-07-20T11:41:43;5.07;;;3.70;;
7162;SDS011;3623;47.098;15.446;2023-07-20T11:44:13;4.70;;;3.40;;
7162;SDS011;3623;47.098;15.446;2023-07-20T11:46:42;4.70;;;4.20;;
7162;SDS011;3623;47.098;15.446;2023-07-20T11:49:11;3.20;;;3.00;;
7162;SDS011;3623;47.098;15.446;2023-07-20T11:51:42;3.80;;;3.50;;
7162;SDS011;3623;47.098;15.446;2023-07-20T11:54:40;5.23;;;3.97;;
7162;SDS011;3623;47.098;15.446;2023-07-20T11:57:41;5.37;;;3.20;;
7162;SDS011;3623;47.098;15.446;2023-07-20T12:01:18;3.20;;;2.90;;
7162;SDS011;3623;47.098;15.446;2023-07-20T12:04:07;6.87;;;4.00;;
7162;SDS011;3623;47.098;15.446;2023-07-20T12:06:38;3.40;;;2.80;;
7162;SDS011;3623;47.098;15.446;2023-07-20T12:09:43;4.10;;;3.80;;
7162;SDS011;3623;47.098;15.446;2023-07-20T12:12:29;4.20;;;2.27;;
7162;SDS011;3623;47.098;15.446;2023-07-20T12:15:31;2.60;;;2.40;;
7162;SDS011;3623;47.098;15.446;2023-07-20T12:18:34;3.37;;;3.07;;
7162;SDS011;3623;47.098;15.446;2023-07-20T12:21:26;2.83;;;2.57;;
7162;SDS011;3623;47.098;15.446;2023-07-20T12:24:17;3.10;;;2.90;;
7162;SDS011;3623;47.098;15.446;2023-07-20T12:27:12;2.80;;;2.60;;
7162;SDS011;3623;47.098;15.446;2023-07-20T12:29:59;3.43;;;3.13;;
7162;SDS011;3623;47.098;15.446;2023-07-20T12:33:05;4.17;;;3.43;;
7162;SDS011;3623;47.098;15.446;2023-07-20T12:35:45;3.23;;;2.93;;
7162;SDS011;3623;47.098;15.446;2023-07-20T12:41:55;4.00;;;3.60;;
7162;SDS011;3623;47.098;15.446;2023-07-20T12:47:43;5.73;;;3.60;;
7162;SDS011;3623;47.098;15.446;2023-07-20T12:50:10;3.37;;;3.07;;
7162;SDS011;3623;47.098;15.446;2023-07-20T12:52:38;4.00;;;3.60;;
7162;SDS011;3623;47.098;15.446;2023-07-20T12:55:12;6.93;;;3.93;;
7162;SDS011;3623;47.098;15.446;2023-07-20T12:57:58;9.73;;;3.70;;
7162;SDS011;3623;47.098;15.446;2023-07-20T13:00:31;4.27;;;3.57;;
7162;SDS011;3623;47.098;15.446;2023-07-20T13:03:11;3.70;;;3.40;;
7162;SDS011;3623;47.098;15.446;2023-07-20T13:05:38;4.07;;;3.77;;
7162;SDS011;3623;47.098;15.446;2023-07-20T13:08:42;4.83;;;4.30;;
7162;SDS011;3623;47.098;15.446;2023-07-20T13:14:58;3.77;;;3.47;;
7162;SDS011;3623;47.098;15.446;2023-07-20T13:17:37;3.47;;;2.77;;
7162;SDS011;3623;47.098;15.446;2023-07-20T13:20:06;2.80;;;2.60;;
7162;SDS011;3623;47.098;15.446;2023-07-20T13:22:36;2.10;;;2.00;;
7162;SDS011;3623;47.098;15.446;2023-07-20T13:25:03;2.80;;;2.60;;
7162;SDS011;3623;47.098;15.446;2023-07-20T13:27:31;4.20;;;2.60;;
7162;SDS011;3623;47.098;15.446;2023-07-20T13:30:17;2.93;;;2.73;;
7162;SDS011;3623;47.098;15.446;2023-07-20T13:33:01;3.03;;;2.20;;
7162;SDS011;3623;47.098;15.446;2023-07-20T13:35:49;3.03;;;2.73;;
7162;SDS011;3623;47.098;15.446;2023-07-20T13:38:34;2.37;;;2.17;;
7162;SDS011;3623;47.098;15.446;2023-07-20T13:41:48;5.93;;;2.70;;
7162;SDS011;3623;47.098;15.446;2023-07-20T13:44:26;2.73;;;2.53;;
7162;SDS011;3623;47.098;15.446;2023-07-20T13:50:07;3.40;;;3.10;;
7162;SDS011;3623;47.098;15.446;2023-07-20T13:52:42;3.10;;;2.90;;
7162;SDS011;3623;47.098;15.446;2023-07-20T13:55:09;3.27;;;2.80;;
7162;SDS011;3623;47.098;15.446;2023-07-20T13:57:36;4.10;;;2.40;;
7162;SDS011;3623;47.098;15.446;2023-07-20T14:00:03;3.73;;;2.50;;
7162;SDS011;3623;47.098;15.446;2023-07-20T14:02:33;2.47;;;2.37;;
7162;SDS011;3623;47.098;15.446;2023-07-20T14:05:03;3.47;;;3.17;;
7162;SDS011;3623;47.098;15.446;2023-07-20T14:07:31;2.60;;;2.40;;
7162;SDS011;3623;47.098;15.446;2023-07-20T14:09:58;3.03;;;2.53;;
7162;SDS011;3623;47.098;15.446;2023-07-20T14:12:26;5.20;;;2.93;;
7162;SDS011;3623;47.098;15.446;2023-07-20T14:14:53;3.30;;;3.00;;
7162;SDS011;3623;47.098;15.446;2023-07-20T14:17:21;3.63;;;2.80;;
7162;SDS011;3623;47.098;15.446;2023-07-20T14:19:48;3.90;;;2.90;;
7162;SDS011;3623;47.098;15.446;2023-07-20T14:22:19;3.00;;;2.80;;
7162;SDS011;3623;47.098;15.446;2023-07-20T14:24:46;4.30;;;3.40;;
7162;SDS011;3623;47.098;15.446;2023-07-20T14:27:14;3.20;;;2.93;;
7162;SDS011;3623;47.098;15.446;2023-07-20T14:29:41;3.47;;;3.17;;
7162;SDS011;3623;47.098;15.446;2023-07-20T14:32:09;3.33;;;3.10;;
7162;SDS011;3623;47.098;15.446;2023-07-20T14:34:36;3.30;;;3.00;;
7162;SDS011;3623;47.098;15.446;2023-07-20T14:37:05;4.03;;;3.73;;
7162;SDS011;3623;47.098;15.446;2023-07-20T14:39:35;3.40;;;3.13;;
7162;SDS011;3623;47.098;15.446;2023-07-20T14:45:12;3.60;;;3.33;;
7162;SDS011;3623;47.098;15.446;2023-07-20T14:47:40;3.30;;;3.00;;
7162;SDS011;3623;47.098;15.446;2023-07-20T14:50:09;2.80;;;2.60;;
7162;SDS011;3623;47.098;15.446;2023-07-20T14:52:36;3.00;;;2.80;;
7162;SDS011;3623;47.098;15.446;2023-07-20T14:55:05;3.93;;;3.30;;
7162;SDS011;3623;47.098;15.446;2023-07-20T14:57:33;4.27;;;3.87;;
7162;SDS011;3623;47.098;15.446;2023-07-20T15:00:01;3.60;;;3.40;;
7162;SDS011;3623;47.098;15.446;2023-07-20T15:02:32;3.67;;;3.37;;
7162;SDS011;3623;47.098;15.446;2023-07-20T15:04:59;3.37;;;3.17;;
7162;SDS011;3623;47.098;15.446;2023-07-20T15:07:28;3.73;;;3.40;;
7162;SDS011;3623;47.098;15.446;2023-07-20T15:09:55;3.37;;;3.13;;
7162;SDS011;3623;47.098;15.446;2023-07-20T15:12:25;3.60;;;3.37;;
7162;SDS011;3623;47.098;15.446;2023-07-20T15:15:01;4.10;;;3.77;;
7162;SDS011;3623;47.098;15.446;2023-07-20T15:17:30;3.20;;;3.00;;
7162;SDS011;3623;47.098;15.446;2023-07-20T15:19:57;3.80;;;3.30;;
7162;SDS011;3623;47.098;15.446;2023-07-20T15:22:25;3.27;;;2.73;;
7162;SDS011;3623;47.098;15.446;2023-07-20T15:24:52;3.00;;;2.70;;
7162;SDS011;3623;47.098;15.446;2023-07-20T15:27:20;3.50;;;3.30;;
7162;SDS011;3623;47.098;15.446;2023-07-20T15:29:50;3.63;;;3.33;;
7162;SDS011;3623;47.098;15.446;2023-07-20T15:32:17;3.50;;;3.20;;
7162;SDS011;3623;47.098;15.446;2023-07-20T15:34:45;3.83;;;3.27;;
7162;SDS011;3623;47.098;15.446;2023-07-20T15:37:15;4.00;;;3.60;;
7162;SDS011;3623;47.098;15.446;2023-07-20T15:39:42;4.23;;;3.73;;
7162;SDS011;3623;47.098;15.446;2023-07-20T15:42:10;2.83;;;2.40;;
7162;SDS011;3623;47.098;15.446;2023-07-20T15:44:37;3.53;;;3.33;;
7162;SDS011;3623;47.098;15.446;2023-07-20T15:47:06;3.83;;;3.50;;
7162;SDS011;3623;47.098;15.446;2023-07-20T15:49:34;3.90;;;3.07;;
7162;SDS011;3623;47.098;15.446;2023-07-20T15:52:01;4.13;;;3.33;;
7162;SDS011;3623;47.098;15.446;2023-07-20T15:54:28;3.30;;;3.10;;
7162;SDS011;3623;47.098;15.446;2023-07-20T15:56:56;4.00;;;3.60;;
7162;SDS011;3623;47.098;15.446;2023-07-20T15:59:23;3.67;;;3.37;;
7162;SDS011;3623;47.098;15.446;2023-07-20T16:01:50;6.53;;;3.70;;
7162;SDS011;3623;47.098;15.446;2023-07-20T16:04:20;4.50;;;4.20;;
7162;SDS011;3623;47.098;15.446;2023-07-20T16:06:47;4.57;;;4.07;;
7162;SDS011;3623;47.098;15.446;2023-07-20T16:09:15;4.03;;;3.73;;
7162;SDS011;3623;47.098;15.446;2023-07-20T16:11:42;5.17;;;4.67;;
7162;SDS011;3623;47.098;15.446;2023-07-20T16:14:10;4.30;;;4.00;;
7162;SDS011;3623;47.098;15.446;2023-07-20T16:16:37;6.63;;;4.60;;
7162;SDS011;3623;47.098;15.446;2023-07-20T16:19:06;5.00;;;4.50;;
7162;SDS011;3623;47.098;15.446;2023-07-20T16:21:53;9.40;;;4.40;;
7162;SDS011;3623;47.098;15.446;2023-07-20T16:24:38;5.10;;;3.90;;
7162;SDS011;3623;47.098;15.446;2023-07-20T16:27:07;5.67;;;4.10;;
7162;SDS011;3623;47.098;15.446;2023-07-20T16:29:34;4.40;;;4.10;;
7162;SDS011;3623;47.098;15.446;2023-07-20T16:32:01;6.60;;;4.20;;
7162;SDS011;3623;47.098;15.446;2023-07-20T16:34:32;4.27;;;3.87;;
7162;SDS011;3623;47.098;15.446;2023-07-20T16:37:07;4.10;;;3.80;;